Terminal Aerodrome Forecast
Issued by NWS

Home | Current Version | Previous Version | Text Only | Print | Product List | Glossary On
Versions: 1 2 3 4 5 6 7 8 9 10 11 12 13 14 15 16 17 18 19 20 21
000
FTUS43 KICT 192332
TAFCNU
TAF
KCNU 192332Z 2000/2024 14006KT P6SM OVC012
     FM200400 13004KT 4SM -DZ BR OVC008
     FM200600 11004KT 3SM -DZ BR OVC005
     FM200900 10005KT 1 1/2SM -DZ BR OVC003
     FM201100 11005KT 1/2SM -DZ FG OVC003
     FM201500 13006KT 2SM BR OVC001
     FM201800 17010KT P6SM BKN035=

USA.gov is the U.S. government's official web portal to all federal, state and local government web resources and services.